createdAt,value
2018-11-14T00:01:06.104Z,51.00
2018-11-14T00:03:34.934Z,50.90
2018-11-14T00:06:03.580Z,50.90
2018-11-14T00:08:32.261Z,50.90
2018-11-14T00:11:00.781Z,50.80
2018-11-14T00:13:29.252Z,50.80
2018-11-14T00:15:57.717Z,50.70
2018-11-14T00:18:26.276Z,50.70
2018-11-14T00:20:54.866Z,50.60
2018-11-14T00:23:23.466Z,50.60
2018-11-14T00:25:52.856Z,50.60
2018-11-14T00:28:21.958Z,50.60
2018-11-14T00:30:51.662Z,51.20
2018-11-14T00:33:21.256Z,50.60
2018-11-14T00:35:49.922Z,50.60
2018-11-14T00:38:18.431Z,50.60
2018-11-14T00:40:47.058Z,50.60
2018-11-14T00:43:17.288Z,50.50
2018-11-14T00:45:45.851Z,50.50
2018-11-14T00:48:14.409Z,50.60
2018-11-14T00:50:43.052Z,50.60
2018-11-14T00:53:11.549Z,50.50
2018-11-14T00:55:40.543Z,50.50
2018-11-14T00:58:11.409Z,50.60
2018-11-14T01:00:40.329Z,50.50
2018-11-14T01:03:08.793Z,50.60
2018-11-14T01:05:37.706Z,50.60
2018-11-14T01:08:06.674Z,50.60
2018-11-14T01:10:35.497Z,51.10
2018-11-14T01:13:04.042Z,50.60
2018-11-14T01:15:32.720Z,50.60
2018-11-14T01:18:01.267Z,50.60
2018-11-14T01:20:29.680Z,50.60
2018-11-14T01:22:58.260Z,50.60
2018-11-14T01:25:27.444Z,50.70
2018-11-14T01:27:56.942Z,50.60
2018-11-14T01:32:56.525Z,50.60
2018-11-14T01:35:24.988Z,50.70
2018-11-14T01:37:53.497Z,50.70
2018-11-14T01:40:24.132Z,50.70
2018-11-14T01:42:53.911Z,50.70
2018-11-14T01:45:22.573Z,50.70
2018-11-14T01:47:51.208Z,50.70
2018-11-14T01:50:19.795Z,50.70
2018-11-14T01:52:48.256Z,50.70
2018-11-14T01:55:17.897Z,50.80
2018-11-14T01:57:46.431Z,50.80
2018-11-14T02:00:16.779Z,50.60
2018-11-14T02:02:45.252Z,50.80
2018-11-14T02:05:13.694Z,50.80
2018-11-14T02:07:42.213Z,50.80
2018-11-14T02:10:13.665Z,50.80
2018-11-14T02:12:43.014Z,50.90
2018-11-14T02:15:13.682Z,50.90
2018-11-14T02:17:42.812Z,50.90
2018-11-14T02:20:11.795Z,50.80
2018-11-14T02:22:41.026Z,50.90
2018-11-14T02:25:10.576Z,50.90
2018-11-14T02:27:39.280Z,50.90
2018-11-14T02:30:13.377Z,50.90
2018-11-14T02:32:42.019Z,50.90
2018-11-14T02:35:10.748Z,50.90
2018-11-14T02:37:41.069Z,50.90
2018-11-14T02:40:11.738Z,50.90
2018-11-14T02:42:40.714Z,50.90
2018-11-14T02:45:09.685Z,51.00
2018-11-14T02:47:38.410Z,51.00
2018-11-14T02:50:08.243Z,51.00
2018-11-14T02:52:36.925Z,51.00
2018-11-14T02:55:06.925Z,50.90
2018-11-14T02:57:35.462Z,50.90
2018-11-14T03:00:03.953Z,50.90
2018-11-14T03:02:32.500Z,51.00
2018-11-14T03:05:01.062Z,51.00
2018-11-14T03:07:29.502Z,51.00
2018-11-14T03:09:58.125Z,51.00
2018-11-14T03:12:26.584Z,51.00
2018-11-14T03:14:55.285Z,51.00
2018-11-14T03:17:23.928Z,51.00
2018-11-14T03:19:52.568Z,51.00
2018-11-14T03:22:21.109Z,51.00
2018-11-14T03:24:49.731Z,51.00
2018-11-14T03:27:18.597Z,50.90
2018-11-14T03:29:47.212Z,51.20
2018-11-14T03:32:15.709Z,51.00
2018-11-14T03:34:44.260Z,51.00
2018-11-14T03:37:12.757Z,51.00
2018-11-14T03:39:41.268Z,51.00
2018-11-14T03:42:09.832Z,51.00
2018-11-14T03:44:38.478Z,51.00
2018-11-14T03:47:06.906Z,51.00
2018-11-14T03:49:35.404Z,51.00
2018-11-14T03:52:03.963Z,51.00
2018-11-14T03:54:32.468Z,51.00
2018-11-14T03:57:01.122Z,51.10
2018-11-14T03:59:29.810Z,51.00
2018-11-14T04:01:58.509Z,51.00
2018-11-14T04:04:27.052Z,51.10
2018-11-14T04:06:55.496Z,51.00
2018-11-14T04:09:24.065Z,51.00
2018-11-14T04:11:52.619Z,51.00
2018-11-14T04:14:21.154Z,51.00
2018-11-14T04:16:49.638Z,51.00
2018-11-14T04:19:18.583Z,51.00
2018-11-14T04:21:47.063Z,51.00
2018-11-14T04:24:15.557Z,51.00
2018-11-14T04:26:44.045Z,51.10
2018-11-14T04:29:12.494Z,51.00
2018-11-14T04:31:41.298Z,51.10
2018-11-14T04:34:09.758Z,51.10
2018-11-14T04:36:38.351Z,51.10
2018-11-14T04:39:09.477Z,51.10
2018-11-14T04:41:38.773Z,51.10
2018-11-14T04:44:07.493Z,51.10
2018-11-14T04:46:35.963Z,51.10
2018-11-14T04:49:04.771Z,51.10
2018-11-14T04:51:33.357Z,51.10
2018-11-14T04:54:01.874Z,51.60
2018-11-14T04:56:30.301Z,51.00
2018-11-14T04:58:59.088Z,51.10
2018-11-14T05:01:27.523Z,51.10
2018-11-14T05:03:56.205Z,51.00
2018-11-14T05:06:24.637Z,51.00
2018-11-14T05:08:53.090Z,51.10
2018-11-14T05:11:21.502Z,51.00
2018-11-14T05:13:50.075Z,51.00
2018-11-14T05:16:18.733Z,51.00
2018-11-14T05:18:47.189Z,51.10
2018-11-14T05:21:15.625Z,51.00
2018-11-14T05:23:44.550Z,51.10
2018-11-14T05:26:13.053Z,51.10
2018-11-14T05:28:41.637Z,51.10
2018-11-14T05:31:10.146Z,51.10
2018-11-14T05:33:38.977Z,51.10
2018-11-14T05:36:07.435Z,51.10
2018-11-14T05:38:36.161Z,51.10
2018-11-14T05:41:04.644Z,51.10
2018-11-14T05:43:33.207Z,51.10
2018-11-14T05:46:01.648Z,51.10
2018-11-14T05:48:30.161Z,51.10
2018-11-14T05:50:58.617Z,51.10
2018-11-14T05:53:27.098Z,51.10
2018-11-14T05:55:55.647Z,51.10
2018-11-14T05:58:24.135Z,51.10
2018-11-14T06:00:52.574Z,51.10
2018-11-14T06:03:21.201Z,51.10
2018-11-14T06:05:49.612Z,51.10
2018-11-14T06:08:18.210Z,51.10
2018-11-14T06:10:46.728Z,51.10
2018-11-14T06:13:15.175Z,51.10
2018-11-14T06:15:43.912Z,51.10
2018-11-14T06:18:12.401Z,51.10
2018-11-14T06:20:40.998Z,51.10
2018-11-14T06:23:09.437Z,51.10
2018-11-14T06:25:38.775Z,51.10
2018-11-14T06:28:08.589Z,51.10
2018-11-14T06:30:37.629Z,51.10
2018-11-14T06:33:07.041Z,51.10
2018-11-14T06:35:35.497Z,51.00
2018-11-14T06:38:03.976Z,51.10
2018-11-14T06:40:32.640Z,51.10
2018-11-14T06:43:01.205Z,51.10
2018-11-14T06:45:31.012Z,51.10
2018-11-14T06:48:00.452Z,51.10
2018-11-14T06:50:29.009Z,51.10
2018-11-14T06:53:01.954Z,51.10
2018-11-14T06:55:30.360Z,51.10
2018-11-14T06:57:58.820Z,51.10
2018-11-14T07:00:28.359Z,51.10
2018-11-14T07:02:57.518Z,51.70
2018-11-14T07:05:26.025Z,51.10
2018-11-14T07:07:54.628Z,51.10
2018-11-14T07:10:28.371Z,51.10
2018-11-14T07:13:02.196Z,51.80
2018-11-14T07:15:30.745Z,51.20
2018-11-14T07:17:59.357Z,51.30
2018-11-14T07:20:29.251Z,51.30
2018-11-14T07:22:57.770Z,51.50
2018-11-14T07:25:26.190Z,51.50
2018-11-14T07:27:54.652Z,51.50
2018-11-14T07:30:25.306Z,51.50
2018-11-14T07:32:56.198Z,51.60
2018-11-14T07:35:24.622Z,52.00
2018-11-14T07:39:05.521Z,51.50
2018-11-14T07:41:35.213Z,51.60
2018-11-14T07:44:03.646Z,51.50
2018-11-14T07:46:32.905Z,51.60
2018-11-14T07:49:01.534Z,51.60
2018-11-14T07:51:30.157Z,51.60
2018-11-14T07:53:58.965Z,51.60
2018-11-14T07:56:27.514Z,51.60
2018-11-14T07:58:55.936Z,51.60
2018-11-14T08:01:24.413Z,51.60
2018-11-14T08:03:52.876Z,51.60
2018-11-14T08:06:22.946Z,51.60
2018-11-14T08:08:52.562Z,51.60
2018-11-14T08:11:22.431Z,51.60
2018-11-14T08:13:52.995Z,51.60
2018-11-14T08:16:21.629Z,51.60
2018-11-14T08:18:50.237Z,51.70
2018-11-14T08:21:18.657Z,51.60
2018-11-14T08:23:47.097Z,51.60
2018-11-14T08:26:15.545Z,51.60
2018-11-14T08:28:44.076Z,51.60
2018-11-14T08:31:12.493Z,51.60
2018-11-14T08:33:40.941Z,51.60
2018-11-14T08:36:09.367Z,51.60
2018-11-14T08:38:37.824Z,51.70
2018-11-14T08:41:06.385Z,51.60
2018-11-14T08:43:34.860Z,51.60
2018-11-14T08:46:03.369Z,51.60
2018-11-14T08:48:31.770Z,51.60
2018-11-14T08:51:00.246Z,51.60
2018-11-14T08:53:28.734Z,51.60
2018-11-14T08:55:57.322Z,51.60
2018-11-14T08:58:25.761Z,51.60
2018-11-14T09:00:54.260Z,51.60
2018-11-14T09:03:22.640Z,51.60
2018-11-14T09:05:51.232Z,51.60
2018-11-14T09:08:19.690Z,51.50
2018-11-14T09:10:48.121Z,51.50
2018-11-14T09:13:17.369Z,51.50
2018-11-14T09:15:46.101Z,51.50
2018-11-14T09:18:15.752Z,51.50
2018-11-14T09:20:44.265Z,51.50
2018-11-14T09:23:12.731Z,51.50
2018-11-14T09:25:41.137Z,51.50
2018-11-14T09:28:09.527Z,51.60
2018-11-14T09:30:38.364Z,51.50
2018-11-14T09:33:06.829Z,51.50
2018-11-14T09:35:35.333Z,51.40
2018-11-14T09:38:03.737Z,51.50
2018-11-14T09:40:32.257Z,51.50
2018-11-14T09:43:00.721Z,51.70
2018-11-14T09:45:30.205Z,51.50
2018-11-14T09:47:58.720Z,51.50
2018-11-14T09:50:31.343Z,51.50
2018-11-14T09:53:01.319Z,51.50
2018-11-14T09:55:29.770Z,51.50
2018-11-14T09:57:58.458Z,51.50
2018-11-14T10:00:29.038Z,51.50
2018-11-14T10:03:15.771Z,51.60
2018-11-14T10:05:44.427Z,51.60
2018-11-14T10:10:12.274Z,51.60
2018-11-14T10:12:40.898Z,51.60
2018-11-14T10:15:12.312Z,51.60
2018-11-14T10:17:41.792Z,51.50
2018-11-14T10:20:12.269Z,52.10
2018-11-14T10:22:41.170Z,52.00
2018-11-14T10:25:10.112Z,51.50
2018-11-14T10:27:39.707Z,51.50
2018-11-14T10:30:10.383Z,51.50
2018-11-14T10:32:39.727Z,50.90
2018-11-14T10:35:09.009Z,51.50
2018-11-14T10:37:38.807Z,51.50
2018-11-14T10:40:09.592Z,51.50
2018-11-14T10:42:38.254Z,51.40
2018-11-14T10:45:08.341Z,51.40
2018-11-14T10:47:37.430Z,51.50
2018-11-14T10:50:08.364Z,51.50
2018-11-14T10:52:37.354Z,51.50
2018-11-14T10:55:07.520Z,51.50
2018-11-14T10:57:36.698Z,51.50
2018-11-14T11:00:13.052Z,52.10
2018-11-14T11:02:46.927Z,51.50
2018-11-14T11:05:20.631Z,51.50
2018-11-14T11:07:54.526Z,51.50
2018-11-14T11:10:28.405Z,52.10
2018-11-14T11:13:02.049Z,51.40
2018-11-14T11:15:35.699Z,51.50
2018-11-14T11:18:07.024Z,51.50
2018-11-14T11:20:35.838Z,51.50
2018-11-14T11:23:04.629Z,51.50
2018-11-14T11:25:33.051Z,51.50
2018-11-14T11:28:01.653Z,51.60
2018-11-14T11:30:30.022Z,51.50
2018-11-14T11:32:58.495Z,51.50
2018-11-14T11:35:27.233Z,51.40
2018-11-14T11:37:55.962Z,51.50
2018-11-14T11:40:24.357Z,51.40
2018-11-14T11:42:52.780Z,51.40
2018-11-14T11:45:21.398Z,51.40
2018-11-14T11:47:50.010Z,51.40
2018-11-14T11:50:18.633Z,51.40
2018-11-14T11:52:47.275Z,51.40
2018-11-14T11:55:15.769Z,51.40
2018-11-14T11:57:44.656Z,51.40
2018-11-14T12:00:13.819Z,51.40
2018-11-14T12:02:43.092Z,51.40
2018-11-14T12:05:14.233Z,51.40
2018-11-14T12:07:44.762Z,51.40
2018-11-14T12:10:15.410Z,51.50
2018-11-14T12:12:46.347Z,51.40
2018-11-14T12:15:17.037Z,51.70
2018-11-14T12:17:45.537Z,51.40
2018-11-14T12:20:14.956Z,51.40
2018-11-14T12:22:43.701Z,51.40
2018-11-14T12:25:14.217Z,51.40
2018-11-14T12:27:42.796Z,51.40
2018-11-14T12:30:14.903Z,51.40
2018-11-14T12:32:43.563Z,51.40
2018-11-14T12:35:13.881Z,51.40
2018-11-14T12:37:42.686Z,51.40
2018-11-14T12:40:12.365Z,51.40
2018-11-14T12:42:40.977Z,51.40
2018-11-14T12:45:11.490Z,51.40
2018-11-14T12:47:41.697Z,51.40
2018-11-14T12:50:11.361Z,51.40
2018-11-14T12:52:40.718Z,51.60
2018-11-14T12:55:11.841Z,51.40
2018-11-14T12:57:40.917Z,51.40
2018-11-14T13:00:11.380Z,51.40
2018-11-14T13:02:40.154Z,51.40
2018-11-14T13:05:09.490Z,51.40
2018-11-14T13:07:38.429Z,51.40
2018-11-14T13:10:08.328Z,51.40
2018-11-14T13:12:36.945Z,51.40
2018-11-14T13:15:05.892Z,51.40
2018-11-14T13:17:34.333Z,51.40
2018-11-14T13:20:02.772Z,51.40
2018-11-14T13:22:31.246Z,51.90
2018-11-14T13:24:59.727Z,51.40
2018-11-14T13:27:28.409Z,51.40
2018-11-14T13:29:56.949Z,51.50
2018-11-14T13:32:25.391Z,51.40
2018-11-14T13:34:53.899Z,51.40
2018-11-14T13:37:22.342Z,51.50
2018-11-14T13:39:50.837Z,51.40
2018-11-14T13:42:19.396Z,51.40
2018-11-14T13:44:48.074Z,52.00
2018-11-14T13:47:16.914Z,51.50
2018-11-14T13:49:46.072Z,51.50
2018-11-14T13:52:14.638Z,51.40
2018-11-14T13:54:43.054Z,51.50
2018-11-14T13:57:11.622Z,51.50
2018-11-14T13:59:40.611Z,52.00
2018-11-14T14:02:09.067Z,51.30
2018-11-14T14:04:37.685Z,51.40
2018-11-14T14:07:06.360Z,51.40
2018-11-14T14:09:34.987Z,51.40
2018-11-14T14:12:03.399Z,51.40
2018-11-14T14:14:31.890Z,51.40
2018-11-14T14:17:00.899Z,51.40
2018-11-14T14:19:29.620Z,51.40
2018-11-14T14:22:00.079Z,52.00
2018-11-14T14:24:28.627Z,51.40
2018-11-14T14:26:57.267Z,51.40
2018-11-14T14:29:25.682Z,51.40
2018-11-14T14:31:54.348Z,51.40
2018-11-14T14:34:22.821Z,51.40
2018-11-14T14:36:51.293Z,51.40
2018-11-14T14:39:19.801Z,51.40
2018-11-14T14:41:48.338Z,51.40
2018-11-14T14:44:16.882Z,51.50
2018-11-14T14:46:45.318Z,51.40
2018-11-14T14:49:13.748Z,51.50
2018-11-14T14:51:42.394Z,51.50
2018-11-14T14:54:10.853Z,51.50
2018-11-14T14:56:39.656Z,51.50
2018-11-14T14:59:08.166Z,51.50
2018-11-14T15:01:36.650Z,51.40
2018-11-14T15:04:05.544Z,51.40
2018-11-14T15:06:34.010Z,51.40
2018-11-14T15:09:02.430Z,51.50
2018-11-14T15:11:30.879Z,51.40
2018-11-14T15:13:59.333Z,51.50
2018-11-14T15:16:28.047Z,51.90
2018-11-14T15:18:56.688Z,51.40
2018-11-14T15:21:25.416Z,51.50
2018-11-14T15:23:53.846Z,51.50
2018-11-14T15:26:22.353Z,51.90
2018-11-14T15:28:50.984Z,51.40
2018-11-14T15:31:19.529Z,51.50
2018-11-14T15:33:47.997Z,51.50
2018-11-14T15:36:16.481Z,51.40
2018-11-14T15:38:45.265Z,51.40
2018-11-14T15:41:13.826Z,51.40
2018-11-14T15:43:42.401Z,51.40
2018-11-14T15:46:11.094Z,51.40
2018-11-14T15:48:39.986Z,51.40
2018-11-14T15:51:08.445Z,52.00
2018-11-14T15:53:37.016Z,51.40
2018-11-14T15:56:05.802Z,51.40
2018-11-14T15:58:34.251Z,51.30
2018-11-14T16:01:02.681Z,51.30
2018-11-14T16:03:33.839Z,51.30
2018-11-14T16:06:04.329Z,51.30
2018-11-14T16:08:35.998Z,51.30
2018-11-14T16:11:07.048Z,51.30
2018-11-14T16:13:37.197Z,51.90
2018-11-14T16:16:05.923Z,51.30
2018-11-14T16:18:34.728Z,51.30
2018-11-14T16:21:03.629Z,51.30
2018-11-14T16:23:32.131Z,51.30
2018-11-14T16:26:00.573Z,51.30
2018-11-14T16:28:29.132Z,51.30
2018-11-14T16:30:57.711Z,51.30
2018-11-14T16:33:26.590Z,51.90
2018-11-14T16:35:56.808Z,51.30
2018-11-14T16:38:25.413Z,51.20
2018-11-14T16:40:53.853Z,51.30
2018-11-14T16:43:22.334Z,51.30
2018-11-14T16:45:50.819Z,51.20
2018-11-14T16:48:19.270Z,51.20
2018-11-14T16:50:47.859Z,51.20
2018-11-14T16:53:16.499Z,51.20
2018-11-14T16:55:45.163Z,51.20
2018-11-14T16:58:13.657Z,51.20
2018-11-14T17:00:42.158Z,51.20
2018-11-14T17:03:10.680Z,51.20
2018-11-14T17:05:39.632Z,51.20
2018-11-14T17:08:08.330Z,51.20
2018-11-14T17:10:36.789Z,51.20
2018-11-14T17:13:05.478Z,51.20
2018-11-14T17:15:34.136Z,51.10
2018-11-14T17:18:02.582Z,51.10
2018-11-14T17:20:31.126Z,51.20
2018-11-14T17:22:59.631Z,51.10
2018-11-14T17:25:28.184Z,50.80
2018-11-14T17:27:56.913Z,51.10
2018-11-14T17:30:26.620Z,51.10
2018-11-14T17:32:55.631Z,51.20
2018-11-14T17:35:24.213Z,51.20
2018-11-14T17:37:52.629Z,51.20
2018-11-14T17:40:24.297Z,51.10
2018-11-14T17:42:53.557Z,51.10
2018-11-14T17:45:24.257Z,51.10
2018-11-14T17:47:53.252Z,51.10
2018-11-14T17:50:32.346Z,51.10
2018-11-14T17:53:01.703Z,51.70
2018-11-14T17:55:31.159Z,51.10
2018-11-14T17:58:00.110Z,51.70
2018-11-14T18:00:30.016Z,51.10
2018-11-14T18:02:58.709Z,51.10
2018-11-14T18:05:28.514Z,51.10
2018-11-14T18:07:57.033Z,51.20
2018-11-14T18:10:26.969Z,51.20
2018-11-14T18:12:56.561Z,51.10
2018-11-14T18:15:25.210Z,51.10
2018-11-14T18:17:54.497Z,51.10
2018-11-14T18:20:26.364Z,51.10
2018-11-14T18:22:55.121Z,51.10
2018-11-14T18:25:23.799Z,51.10
2018-11-14T18:27:52.404Z,51.10
2018-11-14T18:30:24.583Z,51.10
2018-11-14T18:32:53.854Z,51.10
2018-11-14T18:35:23.165Z,51.10
2018-11-14T18:37:52.448Z,51.10
2018-11-14T18:40:22.144Z,51.10
2018-11-14T18:42:50.647Z,51.10
2018-11-14T18:45:24.392Z,51.10
2018-11-14T18:47:53.607Z,51.10
2018-11-14T18:50:22.816Z,51.10
2018-11-14T18:52:51.785Z,51.10
2018-11-14T18:55:21.545Z,51.10
2018-11-14T18:57:50.373Z,51.10
2018-11-14T19:00:20.974Z,51.10
2018-11-14T19:02:49.432Z,51.10
2018-11-14T19:05:19.427Z,51.40
2018-11-14T19:07:49.765Z,51.10
2018-11-14T19:10:19.952Z,50.60
2018-11-14T19:12:49.148Z,51.10
2018-11-14T19:15:18.839Z,51.10
2018-11-14T19:17:47.468Z,51.10
2018-11-14T19:20:17.532Z,51.10
2018-11-14T19:22:46.341Z,51.10
2018-11-14T19:25:16.311Z,51.10
2018-11-14T19:27:45.816Z,51.20
2018-11-14T19:30:15.627Z,51.00
2018-11-14T19:32:45.263Z,51.10
2018-11-14T19:35:14.167Z,51.10
2018-11-14T19:37:43.919Z,51.10
2018-11-14T19:40:15.304Z,51.10
2018-11-14T19:42:44.821Z,51.10
2018-11-14T19:45:16.745Z,51.10
2018-11-14T19:47:45.203Z,51.10
2018-11-14T19:50:14.942Z,50.70
2018-11-14T19:52:43.908Z,51.10
2018-11-14T19:55:13.876Z,51.10
2018-11-14T19:57:43.831Z,51.10
2018-11-14T20:00:15.629Z,51.20
2018-11-14T20:02:45.159Z,51.20
2018-11-14T20:05:14.764Z,51.30
2018-11-14T20:07:43.908Z,51.30
2018-11-14T20:10:16.109Z,51.30
2018-11-14T20:12:44.882Z,51.40
2018-11-14T20:15:16.761Z,51.40
2018-11-14T20:17:46.004Z,51.40
2018-11-14T20:20:17.992Z,51.40
2018-11-14T20:22:46.830Z,51.40
2018-11-14T20:25:15.408Z,51.40
2018-11-14T20:27:44.261Z,51.50
2018-11-14T20:30:16.250Z,51.50
2018-11-14T20:32:44.894Z,51.50
2018-11-14T20:35:14.461Z,51.50
2018-11-14T20:37:43.006Z,51.50
2018-11-14T20:40:13.831Z,51.40
2018-11-14T20:42:42.718Z,51.40
2018-11-14T20:45:16.490Z,51.40
2018-11-14T20:47:45.045Z,51.40
2018-11-14T20:50:15.905Z,51.40
2018-11-14T20:52:45.563Z,51.40
2018-11-14T20:55:14.210Z,51.40
2018-11-14T20:57:43.342Z,51.40
2018-11-14T21:00:20.689Z,51.40
2018-11-14T21:02:49.463Z,51.40
2018-11-14T21:05:18.011Z,51.30
2018-11-14T21:07:46.525Z,51.30
2018-11-14T21:10:16.617Z,51.30
2018-11-14T21:12:45.251Z,51.30
2018-11-14T21:15:16.384Z,51.30
2018-11-14T21:17:45.387Z,51.30
2018-11-14T21:20:14.435Z,51.30
2018-11-14T21:22:43.446Z,51.30
2018-11-14T21:25:13.373Z,51.30
2018-11-14T21:27:43.132Z,51.30
2018-11-14T21:30:13.383Z,51.30
2018-11-14T21:32:42.404Z,51.30
2018-11-14T21:35:15.722Z,51.20
2018-11-14T21:37:50.853Z,51.40
2018-11-14T21:40:23.354Z,51.60
2018-11-14T21:42:52.447Z,51.40
2018-11-14T21:45:25.095Z,51.40
2018-11-14T21:47:59.245Z,51.60
2018-11-14T21:50:32.385Z,51.60
2018-11-14T21:53:09.515Z,51.70
2018-11-14T21:55:38.159Z,51.70
2018-11-14T21:58:06.615Z,51.70
2018-11-14T22:00:37.535Z,51.80
2018-11-14T22:03:07.179Z,51.80
2018-11-14T22:05:35.940Z,51.80
2018-11-14T22:08:04.429Z,51.80
2018-11-14T22:10:32.912Z,52.40
2018-11-14T22:13:01.398Z,51.80
2018-11-14T22:15:30.653Z,51.80
2018-11-14T22:17:59.165Z,51.80
2018-11-14T22:20:28.340Z,51.90
2018-11-14T22:22:56.792Z,51.90
2018-11-14T22:25:28.216Z,51.80
2018-11-14T22:27:56.904Z,51.90
2018-11-14T22:30:29.097Z,51.90
2018-11-14T22:32:57.541Z,51.90
2018-11-14T22:35:26.993Z,51.80
2018-11-14T22:37:55.404Z,51.80
2018-11-14T22:40:25.210Z,51.80
2018-11-14T22:42:53.743Z,51.80
2018-11-14T22:45:27.237Z,51.90
2018-11-14T22:47:55.625Z,51.80
2018-11-14T22:50:24.773Z,51.80
2018-11-14T22:52:53.677Z,51.90
2018-11-14T22:55:23.381Z,51.80
2018-11-14T22:57:52.416Z,51.60
2018-11-14T23:00:56.338Z,51.50
2018-11-14T23:03:24.816Z,51.60
2018-11-14T23:05:53.272Z,51.70
2018-11-14T23:08:21.801Z,51.60
2018-11-14T23:10:50.237Z,51.60
2018-11-14T23:13:19.153Z,51.50
2018-11-14T23:15:47.657Z,51.60
2018-11-14T23:18:17.098Z,51.60
2018-11-14T23:20:45.530Z,51.60
2018-11-14T23:23:14.013Z,51.60
2018-11-14T23:25:42.421Z,51.60
2018-11-14T23:28:10.892Z,51.50
2018-11-14T23:30:39.665Z,51.60
2018-11-14T23:33:08.478Z,51.50
2018-11-14T23:35:36.894Z,51.50
2018-11-14T23:38:06.294Z,51.50
2018-11-14T23:40:35.412Z,52.10
2018-11-14T23:43:04.063Z,51.50
2018-11-14T23:45:32.633Z,51.40
2018-11-14T23:48:01.431Z,51.50
2018-11-14T23:50:31.257Z,51.50
2018-11-14T23:53:00.773Z,51.40
2018-11-14T23:55:30.253Z,51.50
2018-11-14T23:57:59.124Z,51.50
